createdAt,value
2023-02-03T00:02:09.447Z,1.58
2023-02-03T00:04:36.271Z,1.70
2023-02-03T00:07:03.275Z,1.67
2023-02-03T00:09:30.453Z,1.30
2023-02-03T00:11:57.309Z,1.38
2023-02-03T00:14:24.161Z,1.17
2023-02-03T00:16:51.188Z,1.08
2023-02-03T00:19:18.028Z,1.10
2023-02-03T00:21:45.566Z,1.30
2023-02-03T00:24:12.515Z,1.00
2023-02-03T00:26:45.344Z,1.25
2023-02-03T00:29:13.828Z,1.08
2023-02-03T00:31:41.035Z,1.23
2023-02-03T00:34:07.944Z,1.25
2023-02-03T00:36:36.321Z,1.15
2023-02-03T00:39:03.225Z,1.30
2023-02-03T00:41:31.680Z,1.27
2023-02-03T00:43:58.966Z,1.13
2023-02-03T00:46:25.858Z,1.10
2023-02-03T00:48:52.897Z,0.95
2023-02-03T00:51:19.772Z,1.52
2023-02-03T00:53:47.833Z,1.00
2023-02-03T00:56:15.034Z,1.70
2023-02-03T00:58:42.450Z,1.05
2023-02-03T01:01:09.951Z,1.00
2023-02-03T01:03:37.701Z,0.90
2023-02-03T01:06:20.848Z,1.02
2023-02-03T01:08:48.988Z,0.90
2023-02-03T01:11:21.876Z,0.90
2023-02-03T01:13:50.312Z,0.85
2023-02-03T01:16:20.573Z,0.90
2023-02-03T01:18:48.258Z,1.05
2023-02-03T01:21:24.234Z,1.42
2023-02-03T01:23:52.541Z,0.98
2023-02-03T01:26:24.917Z,0.98
2023-02-03T01:28:55.065Z,1.10
2023-02-03T01:31:28.094Z,1.23
2023-02-03T01:33:56.265Z,1.23
2023-02-03T01:36:26.774Z,0.85
2023-02-03T01:38:54.414Z,0.85
2023-02-03T01:41:28.747Z,1.27
2023-02-03T01:43:59.718Z,1.23
2023-02-03T01:46:49.740Z,0.95
2023-02-03T01:49:27.402Z,1.20
2023-02-03T01:51:54.806Z,1.20
2023-02-03T01:54:35.341Z,1.13
2023-02-03T01:57:14.464Z,1.10
2023-02-03T01:59:42.563Z,1.05
2023-02-03T02:02:11.363Z,1.00
2023-02-03T02:05:24.443Z,1.02
2023-02-03T02:07:51.515Z,0.98
2023-02-03T02:10:18.645Z,1.25
2023-02-03T02:12:45.506Z,1.25
2023-02-03T02:15:12.602Z,1.00
2023-02-03T02:18:14.859Z,0.90
2023-02-03T02:21:37.258Z,0.77
2023-02-03T02:24:43.390Z,0.98
2023-02-03T02:27:21.988Z,1.00
2023-02-03T02:30:29.925Z,1.00
2023-02-03T02:33:28.733Z,0.65
2023-02-03T02:36:18.119Z,1.13
2023-02-03T02:39:05.887Z,0.70
2023-02-03T02:41:49.165Z,0.88
2023-02-03T02:44:40.802Z,1.33
2023-02-03T02:47:19.611Z,1.10
2023-02-03T02:50:11.974Z,0.75
2023-02-03T02:52:44.545Z,1.10
2023-02-03T02:55:18.915Z,0.90
2023-02-03T02:57:48.017Z,0.95
2023-02-03T03:00:15.328Z,1.10
2023-02-03T03:02:42.158Z,1.20
2023-02-03T03:05:12.214Z,0.80
2023-02-03T03:07:57.575Z,0.80
2023-02-03T03:10:28.109Z,0.82
2023-02-03T03:15:35.942Z,0.70
2023-02-03T03:18:35.001Z,0.82
2023-02-03T03:21:06.611Z,0.90
2023-02-03T03:23:40.071Z,1.10
2023-02-03T03:26:22.516Z,0.70
2023-02-03T03:28:57.176Z,1.05
2023-02-03T03:31:24.522Z,0.90
2023-02-03T03:33:51.446Z,0.73
2023-02-03T03:36:31.144Z,0.70
2023-02-03T03:39:07.831Z,1.20
2023-02-03T03:41:49.557Z,1.23
2023-02-03T03:44:21.789Z,0.80
2023-02-03T03:47:18.664Z,1.00
2023-02-03T03:49:48.043Z,0.77
2023-02-03T03:52:22.683Z,0.90
2023-02-03T03:54:52.671Z,0.80
2023-02-03T03:57:37.310Z,0.70
2023-02-03T04:00:10.256Z,1.13
2023-02-03T04:02:41.442Z,0.70
2023-02-03T04:05:11.069Z,0.50
2023-02-03T04:07:44.234Z,0.90
2023-02-03T04:10:30.116Z,0.60
2023-02-03T04:12:57.102Z,0.68
2023-02-03T04:15:24.172Z,0.70
2023-02-03T04:17:51.245Z,0.90
2023-02-03T04:20:18.448Z,0.70
2023-02-03T04:22:45.271Z,0.80
2023-02-03T04:25:12.207Z,0.77
2023-02-03T04:27:39.141Z,0.57
2023-02-03T04:30:06.934Z,0.80
2023-02-03T04:32:35.452Z,0.60
2023-02-03T04:35:05.795Z,0.55
2023-02-03T04:37:33.550Z,0.47
2023-02-03T04:40:00.509Z,1.13
2023-02-03T04:42:27.938Z,0.77
2023-02-03T04:44:54.847Z,1.00
2023-02-03T04:47:21.682Z,1.02
2023-02-03T04:49:48.601Z,0.70
2023-02-03T04:52:16.116Z,0.63
2023-02-03T04:54:42.983Z,0.70
2023-02-03T04:57:09.866Z,0.70
2023-02-03T04:59:36.694Z,0.60
2023-02-03T05:02:04.833Z,0.80
2023-02-03T05:04:32.415Z,1.10
2023-02-03T05:06:59.278Z,0.70
2023-02-03T05:09:26.583Z,0.98
2023-02-03T05:11:53.965Z,0.90
2023-02-03T05:14:21.313Z,1.20
2023-02-03T05:16:48.367Z,0.90
2023-02-03T05:19:15.202Z,1.00
2023-02-03T05:21:42.032Z,0.80
2023-02-03T05:24:09.185Z,0.65
2023-02-03T05:26:36.242Z,1.20
2023-02-03T05:29:04.001Z,0.80
2023-02-03T05:31:30.946Z,1.02
2023-02-03T05:33:57.740Z,1.02
2023-02-03T05:36:24.527Z,1.05
2023-02-03T05:38:51.350Z,0.90
2023-02-03T05:41:36.715Z,1.05
2023-02-03T05:44:03.781Z,1.20
2023-02-03T05:46:30.580Z,0.95
2023-02-03T05:48:57.455Z,0.93
2023-02-03T05:51:25.000Z,1.02
2023-02-03T05:53:53.095Z,0.70
2023-02-03T05:56:19.932Z,0.55
2023-02-03T05:58:46.757Z,0.75
2023-02-03T06:01:13.634Z,0.90
2023-02-03T06:03:40.638Z,0.95
2023-02-03T06:06:07.842Z,0.70
2023-02-03T06:08:34.665Z,0.70
2023-02-03T06:11:01.846Z,0.50
2023-02-03T06:13:29.165Z,0.93
2023-02-03T06:15:56.323Z,1.00
2023-02-03T06:18:23.476Z,0.77
2023-02-03T06:20:51.051Z,0.80
2023-02-03T06:23:19.177Z,0.88
2023-02-03T06:25:49.400Z,1.00
2023-02-03T06:28:16.773Z,0.75
2023-02-03T06:30:44.226Z,0.68
2023-02-03T06:33:11.057Z,0.80
2023-02-03T06:35:37.877Z,0.60
2023-02-03T06:38:04.978Z,0.60
2023-02-03T06:40:31.892Z,0.65
2023-02-03T06:42:58.727Z,0.70
2023-02-03T06:45:25.880Z,0.88
2023-02-03T06:47:52.800Z,0.98
2023-02-03T06:50:19.988Z,1.02
2023-02-03T06:52:49.363Z,0.70
2023-02-03T06:55:16.232Z,0.80
2023-02-03T06:57:48.333Z,0.80
2023-02-03T07:00:19.126Z,0.60
2023-02-03T07:02:46.778Z,0.90
2023-02-03T07:05:13.834Z,0.77
2023-02-03T07:07:40.770Z,0.77
2023-02-03T07:10:08.466Z,0.55
2023-02-03T07:12:36.650Z,0.75
2023-02-03T07:15:05.190Z,0.73
2023-02-03T07:17:32.798Z,0.73
2023-02-03T07:20:00.731Z,0.95
2023-02-03T07:22:27.863Z,0.75
2023-02-03T07:24:54.992Z,0.50
2023-02-03T07:27:21.960Z,0.90
2023-02-03T07:29:49.181Z,0.80
2023-02-03T07:32:16.278Z,0.60
2023-02-03T07:34:43.717Z,0.70
2023-02-03T07:37:10.670Z,0.68
2023-02-03T07:39:37.503Z,0.70
2023-02-03T07:42:04.541Z,0.40
2023-02-03T07:44:31.470Z,0.60
2023-02-03T07:46:58.412Z,0.63
2023-02-03T07:49:25.287Z,0.77
2023-02-03T07:51:52.141Z,0.50
2023-02-03T07:54:19.085Z,0.47
2023-02-03T07:56:45.965Z,0.60
2023-02-03T07:59:12.762Z,0.45
2023-02-03T08:01:39.712Z,0.60
2023-02-03T08:04:06.593Z,0.80
2023-02-03T08:06:33.587Z,0.93
2023-02-03T08:09:00.504Z,0.60
2023-02-03T08:11:27.317Z,0.80
2023-02-03T08:13:54.264Z,0.95
2023-02-03T08:16:21.138Z,0.70
2023-02-03T08:18:47.967Z,1.02
2023-02-03T08:21:14.907Z,1.50
2023-02-03T08:23:41.721Z,0.57
2023-02-03T08:26:08.577Z,0.60
2023-02-03T08:28:35.466Z,0.40
2023-02-03T08:31:02.354Z,0.60
2023-02-03T08:33:29.501Z,0.57
2023-02-03T08:35:57.000Z,0.90
2023-02-03T08:38:24.056Z,0.77
2023-02-03T08:40:51.086Z,0.70
2023-02-03T08:43:18.002Z,0.60
2023-02-03T08:45:44.848Z,0.98
2023-02-03T08:48:11.815Z,0.85
2023-02-03T08:50:44.359Z,0.80
2023-02-03T08:53:11.339Z,0.68
2023-02-03T08:55:41.356Z,0.75
2023-02-03T08:58:08.270Z,0.80
2023-02-03T09:00:35.199Z,0.65
2023-02-03T09:03:02.911Z,0.70
2023-02-03T09:05:31.679Z,0.73
2023-02-03T09:07:58.713Z,0.52
2023-02-03T09:10:26.034Z,0.70
2023-02-03T09:12:53.028Z,0.52
2023-02-03T09:15:20.171Z,0.60
2023-02-03T09:17:47.145Z,0.40
2023-02-03T09:20:15.089Z,0.60
2023-02-03T09:22:42.001Z,0.50
2023-02-03T09:25:09.189Z,0.75
2023-02-03T09:27:36.032Z,0.50
2023-02-03T09:30:03.455Z,0.40
2023-02-03T09:32:30.374Z,0.60
2023-02-03T09:34:57.195Z,0.60
2023-02-03T09:37:24.093Z,0.50
2023-02-03T09:39:50.957Z,0.40
2023-02-03T09:42:39.176Z,0.50
2023-02-03T09:45:26.624Z,0.40
2023-02-03T09:48:02.405Z,0.57
2023-02-03T09:50:34.296Z,0.50
2023-02-03T09:53:12.573Z,0.40
2023-02-03T09:55:44.109Z,0.63
2023-02-03T09:58:20.946Z,0.50
2023-02-03T10:00:57.388Z,0.40
2023-02-03T10:04:16.337Z,0.50
2023-02-03T10:06:47.201Z,0.40
2023-02-03T10:12:39.928Z,0.75
2023-02-03T10:15:37.406Z,0.60
2023-02-03T10:18:23.842Z,0.73
2023-02-03T10:20:59.978Z,0.50
2023-02-03T10:23:36.492Z,0.70
2023-02-03T10:26:09.396Z,0.80
2023-02-03T10:29:02.445Z,0.47
2023-02-03T10:31:36.117Z,0.70
2023-02-03T10:34:14.247Z,0.80
2023-02-03T10:37:17.933Z,0.52
2023-02-03T10:39:52.445Z,0.98
2023-02-03T10:42:22.101Z,0.73
2023-02-03T10:44:56.450Z,0.60
2023-02-03T10:47:35.447Z,1.00
2023-02-03T10:50:17.299Z,0.90
2023-02-03T10:52:44.918Z,1.13
2023-02-03T10:55:26.780Z,1.00
2023-02-03T10:57:55.035Z,0.90
2023-02-03T11:00:37.052Z,0.90
2023-02-03T11:03:21.064Z,0.70
2023-02-03T11:05:47.930Z,0.95
2023-02-03T11:08:17.120Z,0.98
2023-02-03T11:10:44.194Z,0.70
2023-02-03T11:13:25.551Z,0.65
2023-02-03T11:15:58.424Z,0.70
2023-02-03T11:18:51.249Z,0.60
2023-02-03T11:21:33.525Z,0.60
2023-02-03T11:24:26.647Z,0.50
2023-02-03T11:27:00.331Z,0.82
2023-02-03T11:29:43.494Z,0.82
2023-02-03T11:32:29.592Z,0.80
2023-02-03T11:35:23.957Z,0.70
2023-02-03T11:37:58.272Z,0.60
2023-02-03T11:40:30.156Z,0.57
2023-02-03T11:42:57.095Z,0.70
2023-02-03T11:45:37.100Z,0.80
2023-02-03T11:48:29.372Z,0.63
2023-02-03T11:51:28.574Z,0.60
2023-02-03T11:54:17.163Z,0.57
2023-02-03T11:57:05.131Z,0.52
2023-02-03T12:00:04.704Z,0.60
2023-02-03T12:03:24.041Z,0.60
2023-02-03T12:06:43.225Z,0.60
2023-02-03T12:09:50.865Z,0.70
2023-02-03T12:12:32.501Z,0.60
2023-02-03T12:15:36.927Z,0.50
2023-02-03T12:18:24.836Z,0.52
2023-02-03T12:21:23.400Z,0.60
2023-02-03T12:24:19.676Z,0.50
2023-02-03T12:27:24.008Z,0.68
2023-02-03T12:30:29.487Z,0.47
2023-02-03T12:33:06.600Z,0.32
2023-02-03T12:35:56.251Z,0.50
2023-02-03T12:38:23.083Z,0.68
2023-02-03T12:40:57.966Z,0.50
2023-02-03T12:43:44.002Z,0.55
2023-02-03T12:46:22.415Z,0.70
2023-02-03T12:49:22.665Z,0.50
2023-02-03T12:52:26.725Z,0.40
2023-02-03T12:55:31.991Z,0.60
2023-02-03T12:58:12.372Z,0.40
2023-02-03T13:00:59.626Z,0.43
2023-02-03T13:03:42.724Z,0.30
2023-02-03T13:06:24.500Z,0.50
2023-02-03T13:09:09.370Z,0.40
2023-02-03T13:12:10.690Z,0.70
2023-02-03T13:14:48.417Z,0.40
2023-02-03T13:17:40.759Z,0.57
2023-02-03T13:20:19.573Z,0.40
2023-02-03T13:22:47.111Z,0.57
2023-02-03T13:25:38.240Z,0.45
2023-02-03T13:28:45.049Z,0.40
2023-02-03T13:31:57.986Z,0.40
2023-02-03T13:35:05.229Z,0.70
2023-02-03T13:37:47.010Z,0.43
2023-02-03T13:40:38.659Z,0.50
2023-02-03T13:43:14.181Z,0.57
2023-02-03T13:45:46.471Z,0.70
2023-02-03T13:48:26.483Z,0.57
2023-02-03T13:51:08.373Z,0.60
2023-02-03T13:53:41.329Z,0.80
2023-02-03T13:56:26.121Z,0.82
2023-02-03T13:59:13.677Z,0.60
2023-02-03T14:01:42.910Z,0.60
2023-02-03T14:04:24.788Z,0.50
2023-02-03T14:06:52.515Z,0.50
2023-02-03T14:09:31.795Z,0.68
2023-02-03T14:12:20.366Z,0.52
2023-02-03T14:14:50.317Z,0.40
2023-02-03T14:17:35.472Z,0.83
2023-02-03T14:20:25.731Z,0.57
2023-02-03T14:23:12.175Z,0.40
2023-02-03T14:25:59.708Z,0.52
2023-02-03T14:28:40.040Z,0.60
2023-02-03T14:31:22.881Z,0.43
2023-02-03T14:34:05.103Z,0.40
2023-02-03T14:36:44.234Z,0.35
2023-02-03T14:39:20.061Z,0.60
2023-02-03T14:42:02.242Z,0.70
2023-02-03T14:44:53.586Z,0.90
2023-02-03T14:47:32.721Z,0.77
2023-02-03T14:50:34.106Z,0.60
2023-02-03T14:53:25.041Z,0.80
2023-02-03T14:59:02.547Z,0.65
2023-02-03T15:01:35.506Z,0.68
2023-02-03T15:04:14.238Z,0.70
2023-02-03T15:06:44.241Z,0.57
2023-02-03T15:09:32.938Z,0.90
2023-02-03T15:12:00.123Z,0.73
2023-02-03T15:14:33.220Z,0.95
2023-02-03T15:17:13.564Z,0.63
2023-02-03T15:19:42.955Z,0.82
2023-02-03T15:22:40.225Z,1.05
2023-02-03T15:25:18.363Z,0.75
2023-02-03T15:27:45.590Z,0.95
2023-02-03T15:30:28.075Z,0.82
2023-02-03T15:33:22.738Z,0.68
2023-02-03T15:36:02.389Z,0.90
2023-02-03T15:39:04.884Z,0.90
2023-02-03T15:41:32.411Z,1.80
2023-02-03T15:44:12.087Z,1.77
2023-02-03T15:46:47.763Z,1.05
2023-02-03T15:49:34.815Z,1.00
2023-02-03T15:52:19.861Z,1.13
2023-02-03T15:54:56.282Z,1.00
2023-02-03T15:57:28.699Z,1.25
2023-02-03T16:00:08.458Z,1.90
2023-02-03T16:02:45.811Z,2.70
2023-02-03T16:05:28.533Z,1.65
2023-02-03T16:07:55.946Z,1.30
2023-02-03T16:10:36.142Z,1.00
2023-02-03T16:13:35.849Z,0.70
2023-02-03T16:16:24.983Z,0.80
2023-02-03T16:18:58.920Z,0.70
2023-02-03T16:21:50.562Z,0.60
2023-02-03T16:24:32.393Z,0.90
2023-02-03T16:27:27.342Z,1.02
2023-02-03T16:30:38.808Z,0.88
2023-02-03T16:33:34.713Z,0.80
2023-02-03T16:36:31.489Z,1.02
2023-02-03T16:39:21.637Z,0.70
2023-02-03T16:42:07.179Z,1.02
2023-02-03T16:44:52.275Z,0.68
2023-02-03T16:47:50.452Z,0.50
2023-02-03T16:50:42.803Z,0.88
2023-02-03T16:53:19.834Z,1.35
2023-02-03T16:55:47.628Z,1.40
2023-02-03T16:58:14.774Z,1.67
2023-02-03T17:00:44.480Z,1.15
2023-02-03T17:03:24.591Z,0.80
2023-02-03T17:05:52.288Z,0.73
2023-02-03T17:08:23.839Z,1.15
2023-02-03T17:10:51.261Z,1.33
2023-02-03T17:13:20.916Z,0.70
2023-02-03T17:15:52.717Z,0.70
2023-02-03T17:18:20.111Z,0.70
2023-02-03T17:20:47.549Z,1.02
2023-02-03T17:23:18.146Z,1.27
2023-02-03T17:25:49.950Z,0.70
2023-02-03T17:28:17.306Z,1.15
2023-02-03T17:30:44.843Z,1.92
2023-02-03T17:33:12.293Z,1.60
2023-02-03T17:35:45.277Z,1.55
2023-02-03T17:38:14.523Z,0.98
2023-02-03T17:54:37.878Z,1.58
2023-02-03T17:57:05.005Z,1.73
2023-02-03T17:59:34.029Z,1.15
2023-02-03T18:02:01.600Z,0.47
2023-02-03T18:04:28.676Z,0.65
2023-02-03T18:06:55.616Z,0.77
2023-02-03T18:09:22.505Z,0.80
2023-02-03T18:11:49.404Z,0.47
2023-02-03T18:14:17.188Z,0.80
2023-02-03T18:16:45.483Z,0.50
2023-02-03T18:19:15.693Z,0.65
2023-02-03T18:21:43.932Z,0.47
2023-02-03T18:24:13.499Z,0.50
2023-02-03T18:26:52.057Z,0.60
2023-02-03T18:29:19.322Z,0.50
2023-02-03T18:31:47.510Z,0.47
2023-02-03T18:34:17.160Z,0.75
2023-02-03T18:36:44.722Z,1.50
2023-02-03T18:39:12.747Z,1.08
2023-02-03T18:41:40.099Z,0.60
2023-02-03T18:44:07.304Z,1.05
2023-02-03T18:46:34.441Z,1.10
2023-02-03T18:49:01.516Z,0.80
2023-02-03T18:51:28.537Z,0.70
2023-02-03T18:53:59.734Z,0.90
2023-02-03T18:56:35.219Z,0.68
2023-02-03T18:59:06.887Z,1.15
2023-02-03T19:01:34.021Z,1.67
2023-02-03T19:04:03.309Z,1.20
2023-02-03T19:06:33.405Z,1.20
2023-02-03T19:09:01.649Z,1.30
2023-02-03T19:11:28.692Z,0.88
2023-02-03T19:13:55.819Z,1.10
2023-02-03T19:16:22.850Z,0.98
2023-02-03T19:18:52.147Z,1.48
2023-02-03T19:21:19.056Z,1.25
2023-02-03T19:23:45.924Z,0.98
2023-02-03T19:26:13.124Z,1.45
2023-02-03T19:28:41.225Z,1.85
2023-02-03T19:31:15.230Z,1.60
2023-02-03T19:33:42.956Z,1.50
2023-02-03T19:36:11.345Z,2.08
2023-02-03T19:38:38.496Z,1.90
2023-02-03T19:41:07.129Z,2.70
2023-02-03T19:43:34.185Z,1.90
2023-02-03T19:46:02.251Z,1.98
2023-02-03T19:48:29.168Z,1.33
2023-02-03T19:50:56.176Z,1.00
2023-02-03T19:53:24.299Z,1.67
2023-02-03T19:55:51.370Z,1.38
2023-02-03T19:58:18.370Z,1.50
2023-02-03T20:00:45.342Z,1.02
2023-02-03T20:03:12.257Z,1.48
2023-02-03T20:05:39.139Z,1.30
2023-02-03T20:08:06.457Z,0.90
2023-02-03T20:10:33.632Z,1.17
2023-02-03T20:13:01.135Z,0.98
2023-02-03T20:15:28.160Z,0.93
2023-02-03T20:17:55.096Z,1.38
2023-02-03T20:20:22.261Z,1.00
2023-02-03T20:22:49.379Z,0.80
2023-02-03T20:25:16.863Z,0.60
2023-02-03T20:27:44.103Z,0.80
2023-02-03T20:30:12.130Z,0.70
2023-02-03T20:32:39.794Z,1.10
2023-02-03T20:35:07.572Z,1.00
2023-02-03T20:37:36.355Z,0.77
2023-02-03T20:40:14.808Z,0.95
2023-02-03T20:42:41.850Z,1.02
2023-02-03T20:45:20.488Z,0.80
2023-02-03T20:47:48.355Z,1.00
2023-02-03T20:50:20.122Z,1.10
2023-02-03T20:52:48.789Z,0.63
2023-02-03T20:55:22.812Z,1.00
2023-02-03T20:57:51.618Z,0.80
2023-02-03T21:00:25.743Z,0.80
2023-02-03T21:03:12.127Z,0.68
2023-02-03T21:05:45.384Z,0.77
2023-02-03T21:08:18.394Z,0.70
2023-02-03T21:10:47.933Z,0.77
2023-02-03T21:13:35.742Z,0.88
2023-02-03T21:16:23.033Z,0.80
2023-02-03T21:18:58.377Z,0.60
2023-02-03T21:21:40.350Z,0.50
2023-02-03T21:24:33.021Z,0.60
2023-02-03T21:27:01.586Z,0.75
2023-02-03T21:29:36.822Z,1.00
2023-02-03T21:32:11.189Z,0.63
2023-02-03T21:34:42.427Z,0.70
2023-02-03T21:37:24.344Z,0.50
2023-02-03T21:39:51.626Z,0.90
2023-02-03T21:42:41.582Z,0.60
2023-02-03T21:45:17.739Z,0.60
2023-02-03T21:47:47.597Z,0.73
2023-02-03T21:50:33.806Z,0.93
2023-02-03T21:53:10.004Z,0.57
2023-02-03T21:55:38.866Z,0.80
2023-02-03T21:58:31.400Z,0.70
2023-02-03T22:01:02.153Z,0.57
2023-02-03T22:06:16.365Z,0.45
2023-02-03T22:08:50.012Z,0.50
2023-02-03T22:11:20.139Z,0.50
2023-02-03T22:13:47.998Z,0.50
2023-02-03T22:16:17.109Z,0.57
2023-02-03T22:18:48.839Z,0.90
2023-02-03T22:21:16.854Z,0.95
2023-02-03T22:23:44.236Z,0.77
2023-02-03T22:26:12.947Z,0.80
2023-02-03T22:28:41.107Z,0.88
2023-02-03T22:31:09.440Z,0.73
2023-02-03T22:33:36.987Z,0.65
2023-02-03T22:36:06.648Z,0.70
2023-02-03T22:38:35.275Z,0.65
2023-02-03T22:41:02.246Z,0.68
2023-02-03T22:43:31.147Z,0.80
2023-02-03T22:45:58.591Z,0.70
2023-02-03T22:48:25.504Z,0.80
2023-02-03T22:50:52.359Z,0.60
2023-02-03T22:53:19.402Z,0.82
2023-02-03T22:55:46.198Z,0.70
2023-02-03T22:58:13.051Z,0.70
2023-02-03T23:00:39.944Z,0.63
2023-02-03T23:03:07.035Z,0.80
2023-02-03T23:05:34.567Z,0.52
2023-02-03T23:08:01.726Z,0.70
2023-02-03T23:10:31.095Z,0.50
2023-02-03T23:13:00.680Z,0.90
2023-02-03T23:15:28.496Z,0.90
2023-02-03T23:17:55.580Z,0.50
2023-02-03T23:20:22.478Z,0.60
2023-02-03T23:22:49.362Z,0.50
2023-02-03T23:25:16.267Z,0.60
2023-02-03T23:27:43.251Z,0.70
2023-02-03T23:30:11.764Z,0.65
2023-02-03T23:32:38.834Z,0.70
2023-02-03T23:35:24.782Z,0.43
2023-02-03T23:37:51.798Z,0.85
2023-02-03T23:40:18.945Z,0.90
2023-02-03T23:42:45.780Z,0.50
2023-02-03T23:45:12.707Z,0.40
2023-02-03T23:47:42.471Z,0.60
2023-02-03T23:50:13.699Z,0.60
2023-02-03T23:52:40.597Z,0.40
2023-02-03T23:55:15.073Z,0.73
2023-02-03T23:57:43.333Z,0.50
